sensor_id;sensor_type;location;lat;lon;timestamp;pressure;altitude;pressure_sealevel;temperature;humidity
6218;BME280;3142;48.206;11.550;2023-04-21T00:00:53;95413.00;;;8.37;82.70
6218;BME280;3142;48.206;11.550;2023-04-21T00:03:21;95410.72;;;8.33;81.24
6218;BME280;3142;48.206;11.550;2023-04-21T00:05:48;95409.91;;;8.33;81.80
6218;BME280;3142;48.206;11.550;2023-04-21T00:08:16;95399.28;;;8.28;81.87
6218;BME280;3142;48.206;11.550;2023-04-21T00:10:44;95399.88;;;8.30;81.99
6218;BME280;3142;48.206;11.550;2023-04-21T00:13:12;95393.69;;;8.31;82.26
6218;BME280;3142;48.206;11.550;2023-04-21T00:15:38;95392.06;;;8.30;82.50
6218;BME280;3142;48.206;11.550;2023-04-21T00:18:05;95380.66;;;8.31;82.28
6218;BME280;3142;48.206;11.550;2023-04-21T00:20:31;95383.69;;;8.35;81.49
6218;BME280;3142;48.206;11.550;2023-04-21T00:22:58;95389.88;;;8.33;82.63
6218;BME280;3142;48.206;11.550;2023-04-21T00:25:25;95383.69;;;8.35;82.02
6218;BME280;3142;48.206;11.550;2023-04-21T00:27:53;95380.09;;;8.36;82.60
6218;BME280;3142;48.206;11.550;2023-04-21T00:30:19;95387.09;;;8.35;81.79
6218;BME280;3142;48.206;11.550;2023-04-21T00:32:46;95394.13;;;8.35;81.75
6218;BME280;3142;48.206;11.550;2023-04-21T00:35:12;95393.47;;;8.32;81.66
6218;BME280;3142;48.206;11.550;2023-04-21T00:37:39;95390.06;;;8.32;82.00
6218;BME280;3142;48.206;11.550;2023-04-21T00:40:07;95388.47;;;8.31;82.63
6218;BME280;3142;48.206;11.550;2023-04-21T00:42:33;95394.25;;;8.26;82.11
6218;BME280;3142;48.206;11.550;2023-04-21T00:45:01;95385.59;;;8.19;83.40
6218;BME280;3142;48.206;11.550;2023-04-21T00:47:28;95394.81;;;8.22;83.30
6218;BME280;3142;48.206;11.550;2023-04-21T00:49:56;95378.81;;;8.25;83.12
6218;BME280;3142;48.206;11.550;2023-04-21T00:52:22;95376.81;;;8.27;82.39
6218;BME280;3142;48.206;11.550;2023-04-21T00:54:49;95376.22;;;8.25;83.43
6218;BME280;3142;48.206;11.550;2023-04-21T00:57:15;95376.03;;;8.26;83.33
6218;BME280;3142;48.206;11.550;2023-04-21T00:59:42;95363.78;;;8.27;83.37
6218;BME280;3142;48.206;11.550;2023-04-21T01:02:10;95369.63;;;8.29;82.59
6218;BME280;3142;48.206;11.550;2023-04-21T01:04:36;95377.44;;;8.29;82.79
6218;BME280;3142;48.206;11.550;2023-04-21T01:07:05;95368.41;;;8.31;82.15
6218;BME280;3142;48.206;11.550;2023-04-21T01:09:32;95353.19;;;8.28;82.58
6218;BME280;3142;48.206;11.550;2023-04-21T01:12:03;95343.34;;;8.30;82.46
6218;BME280;3142;48.206;11.550;2023-04-21T01:14:30;95363.41;;;8.30;82.46
6218;BME280;3142;48.206;11.550;2023-04-21T01:16:56;95377.44;;;8.29;82.16
6218;BME280;3142;48.206;11.550;2023-04-21T01:19:27;95351.56;;;8.27;82.81
6218;BME280;3142;48.206;11.550;2023-04-21T01:21:56;95348.97;;;8.27;82.12
6218;BME280;3142;48.206;11.550;2023-04-21T01:24:34;95359.78;;;8.24;82.70
6218;BME280;3142;48.206;11.550;2023-04-21T01:27:01;95362.41;;;8.31;82.16
6218;BME280;3142;48.206;11.550;2023-04-21T01:29:31;95372.63;;;8.32;82.37
6218;BME280;3142;48.206;11.550;2023-04-21T01:31:58;95360.78;;;8.30;82.74
6218;BME280;3142;48.206;11.550;2023-04-21T01:34:24;95365.00;;;8.31;82.24
6218;BME280;3142;48.206;11.550;2023-04-21T01:36:50;95358.38;;;8.28;82.19
6218;BME280;3142;48.206;11.550;2023-04-21T01:39:18;95367.81;;;8.29;82.82
6218;BME280;3142;48.206;11.550;2023-04-21T01:41:45;95362.22;;;8.32;83.15
6218;BME280;3142;48.206;11.550;2023-04-21T01:44:11;95368.84;;;8.35;82.98
6218;BME280;3142;48.206;11.550;2023-04-21T01:46:37;95366.41;;;8.33;82.97
6218;BME280;3142;48.206;11.550;2023-04-21T01:49:04;95373.28;;;8.35;83.48
6218;BME280;3142;48.206;11.550;2023-04-21T01:51:30;95373.91;;;8.37;82.91
6218;BME280;3142;48.206;11.550;2023-04-21T01:53:57;95372.09;;;8.37;83.25
6218;BME280;3142;48.206;11.550;2023-04-21T01:56:24;95375.50;;;8.38;82.06
6218;BME280;3142;48.206;11.550;2023-04-21T01:58:51;95367.00;;;8.29;83.44
6218;BME280;3142;48.206;11.550;2023-04-21T02:01:17;95365.78;;;8.25;83.40
6218;BME280;3142;48.206;11.550;2023-04-21T02:03:44;95375.22;;;8.26;82.52
6218;BME280;3142;48.206;11.550;2023-04-21T02:06:10;95373.03;;;8.29;82.82
6218;BME280;3142;48.206;11.550;2023-04-21T02:08:38;95369.22;;;8.32;82.99
6218;BME280;3142;48.206;11.550;2023-04-21T02:11:04;95364.81;;;8.32;82.82
6218;BME280;3142;48.206;11.550;2023-04-21T02:13:32;95367.25;;;8.34;83.87
6218;BME280;3142;48.206;11.550;2023-04-21T02:15:58;95366.09;;;8.37;83.52
6218;BME280;3142;48.206;11.550;2023-04-21T02:18:25;95364.88;;;8.39;83.66
6218;BME280;3142;48.206;11.550;2023-04-21T02:20:53;95366.50;;;8.40;83.54
6218;BME280;3142;48.206;11.550;2023-04-21T02:23:20;95357.88;;;8.40;83.25
6218;BME280;3142;48.206;11.550;2023-04-21T02:25:46;95358.25;;;8.37;82.84
6218;BME280;3142;48.206;11.550;2023-04-21T02:28:13;95351.25;;;8.37;83.07
6218;BME280;3142;48.206;11.550;2023-04-21T02:30:40;95357.47;;;8.43;84.01
6218;BME280;3142;48.206;11.550;2023-04-21T02:33:07;95353.66;;;8.45;83.94
6218;BME280;3142;48.206;11.550;2023-04-21T02:35:33;95345.25;;;8.43;83.76
6218;BME280;3142;48.206;11.550;2023-04-21T02:38:00;95352.06;;;8.44;83.69
6218;BME280;3142;48.206;11.550;2023-04-21T02:40:31;95340.63;;;8.45;83.19
6218;BME280;3142;48.206;11.550;2023-04-21T02:42:57;95343.84;;;8.47;83.53
6218;BME280;3142;48.206;11.550;2023-04-21T02:45:24;95341.25;;;8.47;84.31
6218;BME280;3142;48.206;11.550;2023-04-21T02:47:52;95339.44;;;8.48;83.72
6218;BME280;3142;48.206;11.550;2023-04-21T02:50:18;95336.41;;;8.44;84.17
6218;BME280;3142;48.206;11.550;2023-04-21T02:52:45;95339.03;;;8.44;84.00
6218;BME280;3142;48.206;11.550;2023-04-21T02:55:11;95328.59;;;8.44;84.14
6218;BME280;3142;48.206;11.550;2023-04-21T02:57:37;95329.81;;;8.42;83.26
6218;BME280;3142;48.206;11.550;2023-04-21T03:00:05;95325.59;;;8.47;84.09
6218;BME280;3142;48.206;11.550;2023-04-21T03:02:32;95325.00;;;8.45;83.42
6218;BME280;3142;48.206;11.550;2023-04-21T03:05:00;95317.16;;;8.39;83.75
6218;BME280;3142;48.206;11.550;2023-04-21T03:07:26;95320.56;;;8.39;83.45
6218;BME280;3142;48.206;11.550;2023-04-21T03:09:53;95322.38;;;8.39;83.85
6218;BME280;3142;48.206;11.550;2023-04-21T03:12:19;95327.19;;;8.42;84.17
6218;BME280;3142;48.206;11.550;2023-04-21T03:14:46;95318.56;;;8.41;83.33
6218;BME280;3142;48.206;11.550;2023-04-21T03:17:12;95322.59;;;8.44;83.78
6218;BME280;3142;48.206;11.550;2023-04-21T03:19:39;95323.78;;;8.41;83.86
6218;BME280;3142;48.206;11.550;2023-04-21T03:22:06;95324.19;;;8.38;83.58
6218;BME280;3142;48.206;11.550;2023-04-21T03:24:33;95329.59;;;8.37;84.30
6218;BME280;3142;48.206;11.550;2023-04-21T03:26:59;95338.59;;;8.34;83.79
6218;BME280;3142;48.206;11.550;2023-04-21T03:29:26;95346.56;;;8.32;83.52
6218;BME280;3142;48.206;11.550;2023-04-21T03:31:53;95347.38;;;8.33;84.46
6218;BME280;3142;48.206;11.550;2023-04-21T03:34:19;95351.41;;;8.36;84.26
6218;BME280;3142;48.206;11.550;2023-04-21T03:36:45;95345.41;;;8.35;83.41
6218;BME280;3142;48.206;11.550;2023-04-21T03:39:13;95341.44;;;8.39;83.24
6218;BME280;3142;48.206;11.550;2023-04-21T03:41:40;95338.22;;;8.37;82.86
6218;BME280;3142;48.206;11.550;2023-04-21T03:44:06;95341.81;;;8.36;84.01
6218;BME280;3142;48.206;11.550;2023-04-21T03:46:33;95343.59;;;8.36;83.11
6218;BME280;3142;48.206;11.550;2023-04-21T03:48:59;95342.16;;;8.33;82.93
6218;BME280;3142;48.206;11.550;2023-04-21T03:51:25;95338.38;;;8.36;83.33
6218;BME280;3142;48.206;11.550;2023-04-21T03:53:52;95343.59;;;8.36;83.56
6218;BME280;3142;48.206;11.550;2023-04-21T03:56:20;95330.31;;;8.30;84.22
6218;BME280;3142;48.206;11.550;2023-04-21T03:58:46;95336.13;;;8.26;83.50
6218;BME280;3142;48.206;11.550;2023-04-21T04:01:13;95329.31;;;8.25;84.44
6218;BME280;3142;48.206;11.550;2023-04-21T04:03:40;95334.09;;;8.21;84.28
6218;BME280;3142;48.206;11.550;2023-04-21T04:06:06;95331.69;;;8.20;84.59
6218;BME280;3142;48.206;11.550;2023-04-21T04:08:33;95333.69;;;8.18;84.39
6218;BME280;3142;48.206;11.550;2023-04-21T04:10:59;95336.31;;;8.24;85.11
6218;BME280;3142;48.206;11.550;2023-04-21T04:13:27;95331.13;;;8.24;84.89
6218;BME280;3142;48.206;11.550;2023-04-21T04:15:53;95335.53;;;8.24;84.07
6218;BME280;3142;48.206;11.550;2023-04-21T04:18:20;95342.16;;;8.26;85.32
6218;BME280;3142;48.206;11.550;2023-04-21T04:20:46;95356.59;;;8.29;84.68
6218;BME280;3142;48.206;11.550;2023-04-21T04:23:13;95361.22;;;8.33;83.72
6218;BME280;3142;48.206;11.550;2023-04-21T04:25:39;95360.00;;;8.29;84.76
6218;BME280;3142;48.206;11.550;2023-04-21T04:28:06;95359.00;;;8.30;84.93
6218;BME280;3142;48.206;11.550;2023-04-21T04:30:34;95355.59;;;8.30;85.38
6218;BME280;3142;48.206;11.550;2023-04-21T04:33:01;95359.00;;;8.30;85.30
6218;BME280;3142;48.206;11.550;2023-04-21T04:35:27;95358.00;;;8.31;84.20
6218;BME280;3142;48.206;11.550;2023-04-21T04:37:54;95357.00;;;8.32;85.11
6218;BME280;3142;48.206;11.550;2023-04-21T04:40:21;95361.03;;;8.35;84.72
6218;BME280;3142;48.206;11.550;2023-04-21T04:42:47;95353.06;;;8.37;85.60
6218;BME280;3142;48.206;11.550;2023-04-21T04:45:14;95353.25;;;8.42;85.52
6218;BME280;3142;48.206;11.550;2023-04-21T04:47:42;95353.66;;;8.39;85.59
6218;BME280;3142;48.206;11.550;2023-04-21T04:50:10;95352.66;;;8.40;84.77
6218;BME280;3142;48.206;11.550;2023-04-21T04:52:36;95355.47;;;8.45;84.22
6218;BME280;3142;48.206;11.550;2023-04-21T04:55:03;95352.47;;;8.41;83.95
6218;BME280;3142;48.206;11.550;2023-04-21T04:57:30;95356.06;;;8.40;85.54
6218;BME280;3142;48.206;11.550;2023-04-21T04:59:56;95361.47;;;8.39;84.97
6218;BME280;3142;48.206;11.550;2023-04-21T05:02:23;95358.66;;;8.40;84.59
6218;BME280;3142;48.206;11.550;2023-04-21T05:04:50;95365.88;;;8.38;85.31
6218;BME280;3142;48.206;11.550;2023-04-21T05:07:17;95367.50;;;8.39;85.37
6218;BME280;3142;48.206;11.550;2023-04-21T05:09:43;95365.88;;;8.38;83.98
6218;BME280;3142;48.206;11.550;2023-04-21T05:12:10;95367.09;;;8.42;85.22
6218;BME280;3142;48.206;11.550;2023-04-21T05:14:36;95368.28;;;8.40;83.98
6218;BME280;3142;48.206;11.550;2023-04-21T05:17:02;95373.72;;;8.38;85.31
6218;BME280;3142;48.206;11.550;2023-04-21T05:19:29;95375.31;;;8.39;84.22
6218;BME280;3142;48.206;11.550;2023-04-21T05:21:58;95381.53;;;8.38;84.56
6218;BME280;3142;48.206;11.550;2023-04-21T05:24:26;95386.94;;;8.43;84.19
6218;BME280;3142;48.206;11.550;2023-04-21T05:26:52;95381.34;;;8.46;84.24
6218;BME280;3142;48.206;11.550;2023-04-21T05:29:19;95384.38;;;8.50;84.99
6218;BME280;3142;48.206;11.550;2023-04-21T05:31:45;95372.53;;;8.47;84.94
6218;BME280;3142;48.206;11.550;2023-04-21T05:34:12;95378.97;;;8.51;84.98
6218;BME280;3142;48.206;11.550;2023-04-21T05:36:40;95384.59;;;8.55;85.19
6218;BME280;3142;48.206;11.550;2023-04-21T05:39:08;95381.00;;;8.56;85.35
6218;BME280;3142;48.206;11.550;2023-04-21T05:41:34;95378.78;;;8.59;84.62
6218;BME280;3142;48.206;11.550;2023-04-21T05:44:01;95375.78;;;8.63;84.01
6218;BME280;3142;48.206;11.550;2023-04-21T05:46:27;95372.00;;;8.65;83.74
6218;BME280;3142;48.206;11.550;2023-04-21T05:48:54;95371.41;;;8.70;84.30
6218;BME280;3142;48.206;11.550;2023-04-21T05:51:20;95373.03;;;8.71;84.64
6218;BME280;3142;48.206;11.550;2023-04-21T05:53:47;95375.44;;;8.72;84.85
6218;BME280;3142;48.206;11.550;2023-04-21T05:56:14;95379.63;;;8.73;83.46
6218;BME280;3142;48.206;11.550;2023-04-21T05:58:41;95375.44;;;8.72;84.14
6218;BME280;3142;48.206;11.550;2023-04-21T06:01:07;95377.44;;;8.70;84.13
6218;BME280;3142;48.206;11.550;2023-04-21T06:03:34;95367.19;;;8.75;83.87
6218;BME280;3142;48.206;11.550;2023-04-21T06:06:01;95368.44;;;8.79;82.59
6218;BME280;3142;48.206;11.550;2023-04-21T06:08:29;95368.25;;;8.81;83.33
6218;BME280;3142;48.206;11.550;2023-04-21T06:10:55;95375.88;;;8.89;82.87
6218;BME280;3142;48.206;11.550;2023-04-21T06:13:23;95378.50;;;8.96;82.07
6218;BME280;3142;48.206;11.550;2023-04-21T06:15:51;95375.94;;;9.09;82.12
6218;BME280;3142;48.206;11.550;2023-04-21T06:18:17;95371.91;;;9.13;81.06
6218;BME280;3142;48.206;11.550;2023-04-21T06:20:49;95373.75;;;9.19;80.48
6218;BME280;3142;48.206;11.550;2023-04-21T06:23:15;95371.16;;;9.32;79.78
6218;BME280;3142;48.206;11.550;2023-04-21T06:25:41;95373.94;;;9.37;80.48
6218;BME280;3142;48.206;11.550;2023-04-21T06:28:08;95357.25;;;9.45;79.92
6218;BME280;3142;48.206;11.550;2023-04-21T06:30:36;95362.09;;;9.48;79.34
6218;BME280;3142;48.206;11.550;2023-04-21T06:33:02;95358.69;;;9.54;78.39
6218;BME280;3142;48.206;11.550;2023-04-21T06:35:30;95352.66;;;9.67;78.11
6218;BME280;3142;48.206;11.550;2023-04-21T06:37:57;95358.06;;;9.78;77.81
6218;BME280;3142;48.206;11.550;2023-04-21T06:40:23;95357.25;;;9.85;77.14
6218;BME280;3142;48.206;11.550;2023-04-21T06:42:50;95359.44;;;9.94;77.13
6218;BME280;3142;48.206;11.550;2023-04-21T06:45:16;95359.25;;;10.02;76.14
6218;BME280;3142;48.206;11.550;2023-04-21T06:47:44;95355.59;;;10.10;76.02
6218;BME280;3142;48.206;11.550;2023-04-21T06:50:10;95352.38;;;10.15;74.89
6218;BME280;3142;48.206;11.550;2023-04-21T06:52:37;95348.34;;;10.19;75.31
6218;BME280;3142;48.206;11.550;2023-04-21T06:55:04;95353.31;;;10.40;74.90
6218;BME280;3142;48.206;11.550;2023-04-21T06:57:31;95353.44;;;10.58;74.32
6218;BME280;3142;48.206;11.550;2023-04-21T06:59:57;95355.22;;;10.71;73.70
6218;BME280;3142;48.206;11.550;2023-04-21T07:02:24;95347.75;;;11.06;73.13
6218;BME280;3142;48.206;11.550;2023-04-21T07:04:51;95343.50;;;11.37;72.41
6218;BME280;3142;48.206;11.550;2023-04-21T07:07:18;95349.50;;;11.69;69.89
6218;BME280;3142;48.206;11.550;2023-04-21T07:09:44;95356.06;;;12.03;69.09
6218;BME280;3142;48.206;11.550;2023-04-21T07:12:12;95343.53;;;12.41;68.18
6218;BME280;3142;48.206;11.550;2023-04-21T07:14:39;95351.25;;;12.55;66.56
6218;BME280;3142;48.206;11.550;2023-04-21T07:17:05;95342.22;;;12.51;67.29
6218;BME280;3142;48.206;11.550;2023-04-21T07:19:32;95340.06;;;13.08;64.99
6218;BME280;3142;48.206;11.550;2023-04-21T07:21:59;95334.69;;;13.56;63.40
6218;BME280;3142;48.206;11.550;2023-04-21T07:24:26;95333.38;;;13.88;62.52
6218;BME280;3142;48.206;11.550;2023-04-21T07:26:52;95336.22;;;13.87;62.52
6218;BME280;3142;48.206;11.550;2023-04-21T07:29:19;95333.47;;;13.58;61.88
6218;BME280;3142;48.206;11.550;2023-04-21T07:31:45;95337.13;;;13.92;61.36
6218;BME280;3142;48.206;11.550;2023-04-21T07:34:12;95336.81;;;13.24;61.82
6218;BME280;3142;48.206;11.550;2023-04-21T07:36:38;95334.16;;;12.82;63.66
6218;BME280;3142;48.206;11.550;2023-04-21T07:39:06;95334.78;;;12.66;64.11
6218;BME280;3142;48.206;11.550;2023-04-21T07:41:33;95343.81;;;12.70;64.48
6218;BME280;3142;48.206;11.550;2023-04-21T07:43:59;95338.25;;;12.78;64.53
6218;BME280;3142;48.206;11.550;2023-04-21T07:46:26;95342.31;;;12.74;63.97
6218;BME280;3142;48.206;11.550;2023-04-21T07:48:55;95346.03;;;12.85;64.70
6218;BME280;3142;48.206;11.550;2023-04-21T07:51:22;95345.41;;;13.01;64.04
6218;BME280;3142;48.206;11.550;2023-04-21T07:53:48;95346.13;;;13.50;63.37
6218;BME280;3142;48.206;11.550;2023-04-21T07:56:17;95341.34;;;14.17;62.39
6218;BME280;3142;48.206;11.550;2023-04-21T07:58:43;95341.88;;;14.42;61.27
6218;BME280;3142;48.206;11.550;2023-04-21T08:01:10;95335.22;;;14.51;61.44
6218;BME280;3142;48.206;11.550;2023-04-21T08:03:36;95350.09;;;14.69;60.53
6218;BME280;3142;48.206;11.550;2023-04-21T08:06:03;95339.50;;;15.09;59.03
6218;BME280;3142;48.206;11.550;2023-04-21T08:08:29;95346.09;;;14.67;59.29
6218;BME280;3142;48.206;11.550;2023-04-21T08:10:56;95346.09;;;14.67;57.96
6218;BME280;3142;48.206;11.550;2023-04-21T08:13:24;95346.13;;;14.55;59.10
6218;BME280;3142;48.206;11.550;2023-04-21T08:15:50;95348.88;;;14.48;58.82
6218;BME280;3142;48.206;11.550;2023-04-21T08:18:17;95344.38;;;14.37;59.75
6218;BME280;3142;48.206;11.550;2023-04-21T08:20:44;95347.63;;;14.39;59.35
6218;BME280;3142;48.206;11.550;2023-04-21T08:23:12;95355.28;;;14.29;58.93
6218;BME280;3142;48.206;11.550;2023-04-21T08:25:38;95344.03;;;14.69;58.34
6218;BME280;3142;48.206;11.550;2023-04-21T08:28:05;95336.06;;;15.71;57.16
6218;BME280;3142;48.206;11.550;2023-04-21T08:30:32;95342.13;;;16.05;55.41
6218;BME280;3142;48.206;11.550;2023-04-21T08:32:59;95335.16;;;15.99;55.05
6218;BME280;3142;48.206;11.550;2023-04-21T08:35:25;95346.00;;;16.80;54.26
6218;BME280;3142;48.206;11.550;2023-04-21T08:37:52;95339.94;;;17.33;52.50
6218;BME280;3142;48.206;11.550;2023-04-21T08:40:18;95336.09;;;17.78;50.85
6218;BME280;3142;48.206;11.550;2023-04-21T08:42:46;95338.41;;;18.54;50.19
6218;BME280;3142;48.206;11.550;2023-04-21T08:45:13;95331.16;;;18.91;48.87
6218;BME280;3142;48.206;11.550;2023-04-21T08:47:42;95334.41;;;19.29;47.09
6218;BME280;3142;48.206;11.550;2023-04-21T08:50:12;95334.19;;;19.71;47.14
6218;BME280;3142;48.206;11.550;2023-04-21T08:52:38;95335.97;;;20.27;45.67
6218;BME280;3142;48.206;11.550;2023-04-21T08:55:05;95340.66;;;20.76;44.76
6218;BME280;3142;48.206;11.550;2023-04-21T08:57:32;95333.03;;;20.28;43.67
6218;BME280;3142;48.206;11.550;2023-04-21T08:59:59;95331.25;;;19.47;44.87
6218;BME280;3142;48.206;11.550;2023-04-21T09:02:25;95328.34;;;19.69;44.39
6218;BME280;3142;48.206;11.550;2023-04-21T09:04:53;95326.44;;;19.19;45.44
6218;BME280;3142;48.206;11.550;2023-04-21T09:07:30;95326.88;;;18.90;46.83
6218;BME280;3142;48.206;11.550;2023-04-21T09:09:57;95331.75;;;19.44;46.31
6218;BME280;3142;48.206;11.550;2023-04-21T09:12:25;95325.44;;;19.61;45.49
6218;BME280;3142;48.206;11.550;2023-04-21T09:14:52;95327.00;;;19.87;45.53
6218;BME280;3142;48.206;11.550;2023-04-21T09:17:23;95325.97;;;19.88;46.57
6218;BME280;3142;48.206;11.550;2023-04-21T09:19:53;95316.88;;;20.20;46.62
6218;BME280;3142;48.206;11.550;2023-04-21T09:22:26;95319.34;;;19.65;47.00
6218;BME280;3142;48.206;11.550;2023-04-21T09:24:56;95320.78;;;18.80;47.99
6218;BME280;3142;48.206;11.550;2023-04-21T09:27:24;95318.84;;;18.13;48.71
6218;BME280;3142;48.206;11.550;2023-04-21T09:29:50;95328.41;;;18.19;49.45
6218;BME280;3142;48.206;11.550;2023-04-21T09:32:17;95321.06;;;18.26;49.24
6218;BME280;3142;48.206;11.550;2023-04-21T09:34:44;95321.63;;;18.96;48.55
6218;BME280;3142;48.206;11.550;2023-04-21T09:37:13;95317.28;;;18.74;47.08
6218;BME280;3142;48.206;11.550;2023-04-21T09:39:44;95316.66;;;18.52;47.87
6218;BME280;3142;48.206;11.550;2023-04-21T09:42:11;95324.06;;;17.97;48.89
6218;BME280;3142;48.206;11.550;2023-04-21T09:44:37;95325.66;;;17.34;50.65
6218;BME280;3142;48.206;11.550;2023-04-21T09:47:04;95320.22;;;17.19;51.12
6218;BME280;3142;48.206;11.550;2023-04-21T09:49:34;95328.09;;;17.41;50.99
6218;BME280;3142;48.206;11.550;2023-04-21T09:52:05;95331.16;;;17.92;48.69
6218;BME280;3142;48.206;11.550;2023-04-21T09:54:35;95324.31;;;18.43;47.48
6218;BME280;3142;48.206;11.550;2023-04-21T09:57:09;95319.19;;;18.89;46.64
6218;BME280;3142;48.206;11.550;2023-04-21T09:59:42;95314.03;;;18.62;47.04
6218;BME280;3142;48.206;11.550;2023-04-21T10:02:10;95312.91;;;19.26;47.25
6218;BME280;3142;48.206;11.550;2023-04-21T10:04:40;95314.28;;;19.84;45.50
6218;BME280;3142;48.206;11.550;2023-04-21T10:07:08;95315.34;;;19.63;45.27
6218;BME280;3142;48.206;11.550;2023-04-21T10:09:39;95314.56;;;19.67;46.13
6218;BME280;3142;48.206;11.550;2023-04-21T10:12:07;95309.13;;;18.91;46.91
6218;BME280;3142;48.206;11.550;2023-04-21T10:14:34;95309.78;;;18.03;48.52
6218;BME280;3142;48.206;11.550;2023-04-21T10:17:03;95315.31;;;18.49;48.49
6218;BME280;3142;48.206;11.550;2023-04-21T10:19:30;95304.41;;;19.18;47.05
6218;BME280;3142;48.206;11.550;2023-04-21T10:22:00;95301.03;;;19.64;46.72
6218;BME280;3142;48.206;11.550;2023-04-21T10:24:27;95304.06;;;20.42;46.52
6218;BME280;3142;48.206;11.550;2023-04-21T10:26:57;95296.75;;;21.22;45.29
6218;BME280;3142;48.206;11.550;2023-04-21T10:29:30;95289.31;;;21.19;44.32
6218;BME280;3142;48.206;11.550;2023-04-21T10:31:56;95303.91;;;21.32;43.72
6218;BME280;3142;48.206;11.550;2023-04-21T10:34:33;95293.41;;;20.57;43.17
6218;BME280;3142;48.206;11.550;2023-04-21T10:37:11;95306.06;;;19.60;45.58
6218;BME280;3142;48.206;11.550;2023-04-21T10:39:45;95301.53;;;19.56;46.55
6218;BME280;3142;48.206;11.550;2023-04-21T10:42:26;95294.91;;;19.78;44.35
6218;BME280;3142;48.206;11.550;2023-04-21T10:45:00;95301.97;;;20.29;44.26
6218;BME280;3142;48.206;11.550;2023-04-21T10:47:29;95290.25;;;20.99;43.60
6218;BME280;3142;48.206;11.550;2023-04-21T10:49:58;95280.78;;;21.91;43.67
6218;BME280;3142;48.206;11.550;2023-04-21T10:52:31;95283.84;;;22.03;41.88
6218;BME280;3142;48.206;11.550;2023-04-21T10:55:06;95283.22;;;22.16;42.04
6218;BME280;3142;48.206;11.550;2023-04-21T10:57:36;95280.34;;;22.12;42.00
6218;BME280;3142;48.206;11.550;2023-04-21T11:00:04;95284.63;;;22.56;42.97
6218;BME280;3142;48.206;11.550;2023-04-21T11:02:32;95279.38;;;23.31;42.32
6218;BME280;3142;48.206;11.550;2023-04-21T11:04:59;95275.00;;;23.73;40.40
6218;BME280;3142;48.206;11.550;2023-04-21T11:07:26;95277.66;;;23.54;40.51
6218;BME280;3142;48.206;11.550;2023-04-21T11:09:57;95275.56;;;23.19;40.45
6218;BME280;3142;48.206;11.550;2023-04-21T11:12:26;95261.78;;;23.30;41.18
6218;BME280;3142;48.206;11.550;2023-04-21T11:14:55;95275.81;;;23.87;41.11
6218;BME280;3142;48.206;11.550;2023-04-21T11:17:22;95263.03;;;23.52;39.96
6218;BME280;3142;48.206;11.550;2023-04-21T11:19:50;95259.25;;;24.32;40.08
6218;BME280;3142;48.206;11.550;2023-04-21T11:22:17;95258.06;;;24.38;39.00
6218;BME280;3142;48.206;11.550;2023-04-21T11:24:45;95250.00;;;24.10;39.58
6218;BME280;3142;48.206;11.550;2023-04-21T11:27:12;95254.47;;;24.29;38.79
6218;BME280;3142;48.206;11.550;2023-04-21T11:29:39;95247.81;;;23.85;40.03
6218;BME280;3142;48.206;11.550;2023-04-21T11:32:08;95252.59;;;23.69;40.56
6218;BME280;3142;48.206;11.550;2023-04-21T11:34:35;95251.66;;;23.79;41.45
6218;BME280;3142;48.206;11.550;2023-04-21T11:37:02;95250.19;;;23.86;41.74
6218;BME280;3142;48.206;11.550;2023-04-21T11:39:29;95252.28;;;24.17;40.88
6218;BME280;3142;48.206;11.550;2023-04-21T11:41:55;95248.38;;;23.49;40.51
6218;BME280;3142;48.206;11.550;2023-04-21T11:44:32;95242.59;;;23.10;42.00
6218;BME280;3142;48.206;11.550;2023-04-21T11:46:59;95248.59;;;22.59;43.30
6218;BME280;3142;48.206;11.550;2023-04-21T11:49:27;95251.00;;;22.79;43.14
6218;BME280;3142;48.206;11.550;2023-04-21T11:51:54;95244.03;;;23.02;43.06
6218;BME280;3142;48.206;11.550;2023-04-21T11:54:21;95245.63;;;23.03;43.53
6218;BME280;3142;48.206;11.550;2023-04-21T11:56:49;95247.38;;;22.70;43.65
6218;BME280;3142;48.206;11.550;2023-04-21T11:59:17;95250.97;;;22.60;44.40
6218;BME280;3142;48.206;11.550;2023-04-21T12:01:48;95252.00;;;22.22;45.35
6218;BME280;3142;48.206;11.550;2023-04-21T12:04:17;95247.38;;;21.74;45.49
6218;BME280;3142;48.206;11.550;2023-04-21T12:06:46;95244.81;;;21.64;45.66
6218;BME280;3142;48.206;11.550;2023-04-21T12:09:16;95252.41;;;20.63;45.68
6218;BME280;3142;48.206;11.550;2023-04-21T12:11:46;95250.44;;;20.25;47.01
6218;BME280;3142;48.206;11.550;2023-04-21T12:14:13;95252.25;;;20.45;47.76
6218;BME280;3142;48.206;11.550;2023-04-21T12:16:40;95251.75;;;20.27;47.78
6218;BME280;3142;48.206;11.550;2023-04-21T12:19:06;95255.19;;;20.33;48.95
6218;BME280;3142;48.206;11.550;2023-04-21T12:21:36;95253.56;;;20.42;49.62
6218;BME280;3142;48.206;11.550;2023-04-21T12:24:04;95249.88;;;20.28;49.66
6218;BME280;3142;48.206;11.550;2023-04-21T12:26:31;95255.94;;;20.38;49.84
6218;BME280;3142;48.206;11.550;2023-04-21T12:28:57;95261.00;;;20.40;50.31
6218;BME280;3142;48.206;11.550;2023-04-21T12:31:24;95253.03;;;20.40;50.43
6218;BME280;3142;48.206;11.550;2023-04-21T12:33:51;95252.22;;;20.39;50.37
6218;BME280;3142;48.206;11.550;2023-04-21T12:36:17;95249.41;;;20.16;48.82
6218;BME280;3142;48.206;11.550;2023-04-21T12:38:44;95253.41;;;20.08;49.15
6218;BME280;3142;48.206;11.550;2023-04-21T12:41:11;95251.34;;;19.85;47.63
6218;BME280;3142;48.206;11.550;2023-04-21T12:43:38;95240.50;;;19.56;46.74
6218;BME280;3142;48.206;11.550;2023-04-21T12:46:04;95247.13;;;19.58;47.89
6218;BME280;3142;48.206;11.550;2023-04-21T12:48:31;95243.41;;;19.39;47.66
6218;BME280;3142;48.206;11.550;2023-04-21T12:50:58;95232.50;;;19.45;46.93
6218;BME280;3142;48.206;11.550;2023-04-21T12:53:25;95233.59;;;19.39;47.28
6218;BME280;3142;48.206;11.550;2023-04-21T12:55:51;95235.16;;;19.45;45.87
6218;BME280;3142;48.206;11.550;2023-04-21T12:58:19;95231.72;;;19.40;43.74
6218;BME280;3142;48.206;11.550;2023-04-21T13:00:45;95234.91;;;19.32;44.01
6218;BME280;3142;48.206;11.550;2023-04-21T13:03:12;95228.81;;;19.36;44.11
6218;BME280;3142;48.206;11.550;2023-04-21T13:05:38;95235.44;;;19.49;45.24
6218;BME280;3142;48.206;11.550;2023-04-21T13:08:05;95226.44;;;19.55;44.43
6218;BME280;3142;48.206;11.550;2023-04-21T13:10:31;95226.94;;;19.42;45.00
6218;BME280;3142;48.206;11.550;2023-04-21T13:12:57;95227.75;;;19.47;44.83
6218;BME280;3142;48.206;11.550;2023-04-21T13:15:25;95229.09;;;19.35;44.37
6218;BME280;3142;48.206;11.550;2023-04-21T13:17:52;95228.81;;;19.26;45.38